Time;durP1;ratioP1;P1;durP2;ratioP2;P2;SDS_P1;SDS_P2;PMS_P1;PMS_P2;Temp;Humidity;BMP_temperature;BMP_pressure;BME280_temperature;BME280_humidity;BME280_pressure;Samples;Min_cycle;Max_cycle;Signal;HPM_P1;HPM_P2
2022/04/16 00:00:49;;;;;;;;;;;7.10;99.90;;;;;;4983814;28;20380;-77
2022/04/16 00:03:15;;;;;;;;;;;7.10;99.90;;;;;;4986951;28;19928;-77
2022/04/16 00:05:40;;;;;;;;;;;7.10;99.90;;;;;;4968890;28;19921;-77
2022/04/16 00:08:06;;;;;;;;;;;7.00;99.90;;;;;;4987891;28;19922;-77
2022/04/16 00:10:35;;;;;;;;;;;6.90;99.90;;;;;;4968580;28;19930;-77
2022/04/16 00:13:02;;;;;;;;;;;6.90;99.90;;;;;;4970334;28;20366;-78
2022/04/16 00:15:27;;;;;;;;;;;6.80;99.90;;;;;;4970949;28;19922;-77
2022/04/16 00:17:53;;;;;;;;;;;6.80;99.90;;;;;;4970374;28;20012;-77
2022/04/16 00:20:19;;;;;;;;;;;6.70;99.90;;;;;;4968271;28;19933;-78
2022/04/16 00:22:44;;;;;;;;;;;6.70;99.90;;;;;;4968562;28;19922;-78
2022/04/16 00:25:11;;;;;;;;;;;6.70;99.90;;;;;;4970294;28;19922;-77
2022/04/16 00:27:37;;;;;;;;;;;6.70;99.90;;;;;;4970468;28;20403;-78
2022/04/16 00:30:03;;;;;;;;;;;6.70;99.90;;;;;;4968585;28;19930;-79
2022/04/16 00:32:29;;;;;;;;;;;6.60;99.90;;;;;;4969852;28;19922;-78
2022/04/16 00:34:54;;;;;;;;;;;6.60;99.90;;;;;;4970044;28;20300;-78
2022/04/16 00:37:20;;;;;;;;;;;6.50;99.90;;;;;;4970822;28;19922;-78
2022/04/16 00:39:45;;;;;;;;;;;6.50;99.90;;;;;;4967655;28;19922;-78
2022/04/16 00:42:11;;;;;;;;;;;6.50;99.90;;;;;;4969544;28;19937;-78
2022/04/16 00:44:36;;;;;;;;;;;6.40;99.90;;;;;;4968417;28;19921;-78
2022/04/16 00:47:02;;;;;;;;;;;6.40;99.90;;;;;;4970261;28;20351;-78
2022/04/16 00:49:27;;;;;;;;;;;6.40;99.90;;;;;;4969443;28;19921;-78
2022/04/16 00:51:52;;;;;;;;;;;6.30;99.90;;;;;;4969667;28;20293;-78
2022/04/16 00:54:18;;;;;;;;;;;6.30;99.90;;;;;;4969875;28;19984;-78
2022/04/16 00:56:44;;;;;;;;;;;6.30;99.90;;;;;;4969119;28;19928;-78
2022/04/16 00:59:09;;;;;;;;;;;6.30;99.90;;;;;;4970537;28;20309;-78
2022/04/16 01:01:35;;;;;;;;;;;6.30;99.90;;;;;;4969974;28;20407;-78
2022/04/16 01:04:01;;;;;;;;;;;6.20;99.90;;;;;;4954298;28;19945;-78
2022/04/16 01:06:36;;;;;;;;;;;6.20;99.90;;;;;;4969375;28;19933;-78
2022/04/16 01:09:02;;;;;;;;;;;6.20;99.90;;;;;;4987167;28;20301;-78
2022/04/16 01:11:28;;;;;;;;;;;6.20;99.90;;;;;;4970723;28;19922;-78
2022/04/16 01:13:53;;;;;;;;;;;6.10;99.90;;;;;;4970667;28;19929;-79
2022/04/16 01:16:19;;;;;;;;;;;6.10;99.90;;;;;;4959549;28;19922;-78
2022/04/16 01:18:47;;;;;;;;;;;6.10;99.90;;;;;;4969538;28;19985;-78
2022/04/16 01:21:13;;;;;;;;;;;6.00;99.90;;;;;;4971844;28;20299;-78
2022/04/16 01:23:39;;;;;;;;;;;6.00;99.90;;;;;;4970746;28;20004;-78
2022/04/16 01:26:05;;;;;;;;;;;6.00;99.90;;;;;;4972267;28;20012;-79
2022/04/16 01:28:30;;;;;;;;;;;6.00;99.90;;;;;;4973575;28;20013;-78
2022/04/16 01:30:56;;;;;;;;;;;6.00;99.90;;;;;;4972985;28;20300;-78
2022/04/16 01:33:22;;;;;;;;;;;6.00;99.90;;;;;;4970829;28;19985;-78
2022/04/16 01:35:53;;;;;;;;;;;6.00;99.90;;;;;;4968723;28;20138;-78
2022/04/16 01:38:19;;;;;;;;;;;6.00;99.90;;;;;;4970394;28;19968;-78
2022/04/16 01:40:45;;;;;;;;;;;5.90;99.90;;;;;;4973875;28;19970;-78
2022/04/16 01:43:10;;;;;;;;;;;6.00;99.90;;;;;;4974669;28;19941;-80
2022/04/16 01:45:35;;;;;;;;;;;6.00;99.90;;;;;;4989087;28;19926;-80
2022/04/16 01:48:01;;;;;;;;;;;6.10;99.90;;;;;;4988314;28;19965;-78
2022/04/16 01:50:27;;;;;;;;;;;6.10;99.90;;;;;;4973161;28;19925;-78
2022/04/16 01:52:53;;;;;;;;;;;6.20;99.90;;;;;;4972202;28;20438;-78
2022/04/16 01:55:19;;;;;;;;;;;6.30;99.90;;;;;;4972301;28;19977;-78
2022/04/16 01:57:44;;;;;;;;;;;6.40;99.90;;;;;;4971623;28;19922;-78
2022/04/16 02:00:12;;;;;;;;;;;6.40;99.90;;;;;;4973972;28;19921;-78
2022/04/16 02:02:38;;;;;;;;;;;6.50;99.90;;;;;;4971443;28;19945;-78
2022/04/16 02:05:08;;;;;;;;;;;6.70;99.90;;;;;;4972503;28;20392;-79
2022/04/16 02:07:33;;;;;;;;;;;6.80;99.90;;;;;;4969994;28;19922;-78
2022/04/16 02:10:00;;;;;;;;;;;6.90;99.90;;;;;;4973538;28;19921;-78
2022/04/16 02:12:26;;;;;;;;;;;6.90;99.90;;;;;;4972743;28;19929;-78
2022/04/16 02:14:51;;;;;;;;;;;7.10;99.90;;;;;;4956555;28;20412;-79
2022/04/16 02:17:16;;;;;;;;;;;7.20;99.90;;;;;;4972143;28;20273;-78
2022/04/16 02:19:43;;;;;;;;;;;7.30;99.90;;;;;;4973700;28;19984;-79
2022/04/16 02:22:09;;;;;;;;;;;7.30;99.90;;;;;;4971841;28;19922;-78
2022/04/16 02:24:35;;;;;;;;;;;7.40;99.90;;;;;;4972742;28;20354;-79
2022/04/16 02:27:01;;;;;;;;;;;7.40;99.90;;;;;;4971696;28;19981;-78
2022/04/16 02:29:26;;;;;;;;;;;7.50;99.90;;;;;;4991025;28;19965;-78
2022/04/16 02:31:52;;;;;;;;;;;7.60;99.90;;;;;;4956376;28;19926;-79
2022/04/16 02:34:19;;;;;;;;;;;7.60;99.90;;;;;;4973016;28;20000;-79
2022/04/16 02:36:44;;;;;;;;;;;7.70;99.90;;;;;;4969641;28;19940;-78
2022/04/16 02:39:10;;;;;;;;;;;7.70;99.90;;;;;;4972891;28;20309;-79
2022/04/16 02:41:35;;;;;;;;;;;7.70;99.90;;;;;;4972878;28;19968;-79
2022/04/16 02:44:01;;;;;;;;;;;7.80;99.90;;;;;;4973883;28;19929;-79
2022/04/16 02:49:12;;;;;;;;;;;7.90;99.90;;;;;;4989952;28;19929;-80
2022/04/16 02:51:38;;;;;;;;;;;7.90;99.90;;;;;;4987504;28;20134;-78
2022/04/16 02:54:05;;;;;;;;;;;7.90;99.90;;;;;;4971686;28;19925;-79
2022/04/16 02:56:31;;;;;;;;;;;7.90;99.90;;;;;;4971549;28;20385;-79
2022/04/16 02:58:56;;;;;;;;;;;7.90;99.90;;;;;;4972183;28;20029;-79
2022/04/16 03:01:22;;;;;;;;;;;8.00;99.90;;;;;;4970388;28;19925;-78
2022/04/16 03:03:47;;;;;;;;;;;8.00;99.90;;;;;;4971689;28;19921;-79
2022/04/16 03:06:13;;;;;;;;;;;8.00;99.90;;;;;;4972480;28;19926;-78
2022/04/16 03:08:38;;;;;;;;;;;8.00;99.90;;;;;;4972844;28;20101;-78
2022/04/16 03:11:04;;;;;;;;;;;8.10;99.90;;;;;;4971387;28;20713;-78
2022/04/16 03:13:30;;;;;;;;;;;8.10;99.90;;;;;;4968641;28;19925;-79
2022/04/16 03:18:39;;;;;;;;;;;8.10;99.90;;;;;;4970920;28;19929;-79
2022/04/16 03:21:06;;;;;;;;;;;8.20;99.90;;;;;;4971852;28;19922;-78
2022/04/16 03:23:31;;;;;;;;;;;8.20;99.90;;;;;;4971172;28;19933;-78
2022/04/16 03:25:59;;;;;;;;;;;8.20;99.90;;;;;;4969950;28;19929;-79
2022/04/16 03:28:24;;;;;;;;;;;8.20;99.90;;;;;;4970912;28;19922;-79
2022/04/16 03:30:50;;;;;;;;;;;8.20;99.90;;;;;;4970318;28;20292;-79
2022/04/16 03:33:16;;;;;;;;;;;8.20;99.90;;;;;;4970868;28;20400;-79
2022/04/16 03:35:41;;;;;;;;;;;8.10;99.90;;;;;;4970246;28;19925;-78
2022/04/16 03:38:07;;;;;;;;;;;8.10;99.90;;;;;;4969916;28;19937;-78
2022/04/16 03:40:32;;;;;;;;;;;8.10;99.90;;;;;;4970339;28;19933;-78
2022/04/16 03:42:59;;;;;;;;;;;8.10;99.90;;;;;;4969275;28;19926;-78
2022/04/16 03:45:27;;;;;;;;;;;8.10;99.90;;;;;;4971041;28;21375;-79
2022/04/16 03:47:56;;;;;;;;;;;8.10;99.90;;;;;;4968517;28;19932;-78
2022/04/16 03:50:22;;;;;;;;;;;8.10;99.90;;;;;;4970905;28;19921;-78
2022/04/16 03:52:48;;;;;;;;;;;8.10;99.90;;;;;;4970541;28;19922;-78
2022/04/16 04:00:44;;;;;;;;;;;8.00;99.90;;;;;;4970907;28;20252;-78
2022/04/16 04:03:10;;;;;;;;;;;8.00;99.90;;;;;;4969891;28;19922;-79
2022/04/16 04:05:37;;;;;;;;;;;7.90;99.90;;;;;;4971557;28;19976;-79
2022/04/16 04:08:06;;;;;;;;;;;7.90;99.90;;;;;;4969856;28;20431;-78
2022/04/16 04:10:32;;;;;;;;;;;7.80;99.90;;;;;;4985217;28;19922;-79
2022/04/16 04:12:58;;;;;;;;;;;7.70;99.90;;;;;;4970246;28;19945;-78
2022/04/16 04:15:29;;;;;;;;;;;7.80;99.90;;;;;;4970138;28;20434;-78
2022/04/16 04:17:55;;;;;;;;;;;7.70;99.90;;;;;;4976274;28;19926;-78
2022/04/16 04:20:21;;;;;;;;;;;7.70;99.90;;;;;;4969724;28;19929;-78
2022/04/16 04:22:46;;;;;;;;;;;7.60;99.90;;;;;;4970129;28;19930;-78
2022/04/16 04:25:12;;;;;;;;;;;7.60;99.90;;;;;;4970360;28;20387;-78
2022/04/16 04:27:37;;;;;;;;;;;7.70;99.90;;;;;;4968902;28;20393;-78
2022/04/16 04:30:04;;;;;;;;;;;7.60;99.90;;;;;;4970081;28;20068;-78
2022/04/16 04:32:29;;;;;;;;;;;7.60;99.90;;;;;;4970072;28;19922;-78
2022/04/16 04:34:55;;;;;;;;;;;7.60;99.90;;;;;;4969206;28;19934;-78
2022/04/16 04:37:20;;;;;;;;;;;7.60;99.90;;;;;;4969042;28;19944;-78
2022/04/16 04:39:46;;;;;;;;;;;7.60;99.90;;;;;;4983443;28;19926;-77
2022/04/16 04:42:12;;;;;;;;;;;7.60;99.90;;;;;;4970701;28;19922;-77
2022/04/16 04:44:37;;;;;;;;;;;7.60;99.90;;;;;;4967757;28;19922;-77
2022/04/16 04:47:03;;;;;;;;;;;7.70;99.90;;;;;;4970126;28;19926;-78
2022/04/16 04:49:28;;;;;;;;;;;7.70;99.90;;;;;;4985859;28;19973;-78
2022/04/16 04:51:54;;;;;;;;;;;7.70;99.90;;;;;;4970195;28;19964;-78
2022/04/16 04:54:21;;;;;;;;;;;7.70;99.90;;;;;;4969232;28;19932;-78
2022/04/16 04:56:47;;;;;;;;;;;7.70;99.90;;;;;;4985733;28;19952;-78
2022/04/16 04:59:12;;;;;;;;;;;7.70;99.90;;;;;;4968286;28;20385;-78
2022/04/16 05:01:38;;;;;;;;;;;7.70;99.90;;;;;;4970894;28;19921;-78
2022/04/16 05:04:03;;;;;;;;;;;7.70;99.90;;;;;;4969373;28;19973;-78
2022/04/16 05:06:29;;;;;;;;;;;7.70;99.90;;;;;;4970209;28;20339;-78
2022/04/16 05:08:55;;;;;;;;;;;7.70;99.90;;;;;;4968518;28;20587;-78
2022/04/16 05:11:20;;;;;;;;;;;7.80;99.90;;;;;;4970660;28;19921;-79
2022/04/16 05:13:46;;;;;;;;;;;7.80;99.90;;;;;;4986799;28;19980;-76
2022/04/16 05:16:12;;;;;;;;;;;7.80;99.90;;;;;;4971218;28;19922;-76
2022/04/16 05:18:38;;;;;;;;;;;7.80;99.90;;;;;;4974282;28;20343;-76
2022/04/16 05:21:03;;;;;;;;;;;7.80;99.90;;;;;;4971651;28;19926;-76
2022/04/16 05:23:29;;;;;;;;;;;7.80;99.90;;;;;;4989759;28;19976;-76
2022/04/16 05:25:54;;;;;;;;;;;7.90;99.90;;;;;;4970959;28;19922;-76
2022/04/16 05:28:20;;;;;;;;;;;7.90;99.90;;;;;;4973931;28;19944;-76
2022/04/16 05:30:48;;;;;;;;;;;7.90;99.90;;;;;;4989438;28;19922;-76
2022/04/16 05:34:18;;;;;;;;;;;7.90;99.90;;;;;;4989951;28;20356;-76
2022/04/16 05:36:03;;;;;;;;;;;8.00;99.90;;;;;;4972018;28;19929;-76
2022/04/16 05:38:28;;;;;;;;;;;8.00;99.90;;;;;;4973610;28;19965;-76
2022/04/16 05:40:54;;;;;;;;;;;8.10;99.90;;;;;;4972479;28;20420;-76
2022/04/16 05:43:19;;;;;;;;;;;8.10;99.90;;;;;;4973388;28;19968;-76
2022/04/16 05:45:45;;;;;;;;;;;8.10;99.90;;;;;;4988825;28;19975;-77
2022/04/16 05:48:10;;;;;;;;;;;8.10;99.90;;;;;;4973694;28;20365;-76
2022/04/16 05:50:37;;;;;;;;;;;8.20;99.90;;;;;;4973362;28;20378;-76
2022/04/16 05:53:05;;;;;;;;;;;8.20;99.90;;;;;;4972145;28;19934;-77
2022/04/16 05:55:31;;;;;;;;;;;8.20;99.90;;;;;;4972296;28;19926;-77
2022/04/16 05:57:56;;;;;;;;;;;8.10;99.90;;;;;;4972232;28;19928;-77
2022/04/16 06:00:22;;;;;;;;;;;8.10;99.90;;;;;;4973138;28;20424;-77
2022/04/16 06:02:48;;;;;;;;;;;8.10;99.90;;;;;;4971693;28;19922;-77
2022/04/16 06:05:13;;;;;;;;;;;8.10;99.90;;;;;;4972001;28;19968;-77
2022/04/16 06:07:38;;;;;;;;;;;8.10;99.90;;;;;;4972018;28;19922;-77
2022/04/16 06:10:04;;;;;;;;;;;8.10;99.90;;;;;;4972120;28;20032;-77
2022/04/16 06:12:30;;;;;;;;;;;8.00;99.90;;;;;;4972790;28;19929;-77
2022/04/16 06:14:55;;;;;;;;;;;8.00;99.90;;;;;;4972250;28;19937;-78
2022/04/16 06:17:21;;;;;;;;;;;8.00;99.90;;;;;;4971909;28;19961;-77
2022/04/16 06:19:46;;;;;;;;;;;8.00;99.90;;;;;;4986656;28;19929;-77
2022/04/16 06:22:12;;;;;;;;;;;7.90;99.90;;;;;;4972182;28;19972;-77
2022/04/16 06:24:41;;;;;;;;;;;8.00;99.90;;;;;;4973054;28;19977;-77
2022/04/16 06:27:06;;;;;;;;;;;8.00;99.90;;;;;;4969652;28;19957;-78
2022/04/16 06:29:32;;;;;;;;;;;8.00;99.90;;;;;;4972355;28;19961;-77
2022/04/16 06:31:58;;;;;;;;;;;8.00;99.90;;;;;;4972667;28;19976;-78
2022/04/16 06:34:23;;;;;;;;;;;8.00;99.90;;;;;;4955395;28;19925;-78
2022/04/16 06:36:49;;;;;;;;;;;8.00;99.90;;;;;;4956149;28;20305;-78
2022/04/16 06:39:15;;;;;;;;;;;8.00;99.90;;;;;;4969290;28;19987;-77
2022/04/16 06:41:40;;;;;;;;;;;8.00;99.90;;;;;;4971746;28;19922;-78
2022/04/16 06:44:06;;;;;;;;;;;8.00;99.90;;;;;;4972696;28;19922;-77
2022/04/16 06:46:32;;;;;;;;;;;8.10;99.90;;;;;;4972515;28;19922;-77
2022/04/16 06:48:58;;;;;;;;;;;8.10;99.90;;;;;;4955748;28;19925;-77
2022/04/16 06:51:23;;;;;;;;;;;8.10;99.90;;;;;;4970657;28;19997;-77
2022/04/16 06:53:49;;;;;;;;;;;8.10;99.90;;;;;;4956337;28;19972;-77
2022/04/16 06:56:14;;;;;;;;;;;8.10;99.90;;;;;;4971042;28;19933;-77
2022/04/16 06:58:40;;;;;;;;;;;8.20;99.90;;;;;;4972424;28;19922;-77
2022/04/16 07:01:05;;;;;;;;;;;8.30;99.90;;;;;;4971387;28;20384;-77
2022/04/16 07:03:31;;;;;;;;;;;8.30;99.90;;;;;;4972160;28;19923;-77
2022/04/16 07:05:56;;;;;;;;;;;8.30;99.90;;;;;;4970005;28;19974;-77
2022/04/16 07:08:22;;;;;;;;;;;8.30;99.90;;;;;;4971729;28;19928;-78
2022/04/16 07:10:47;;;;;;;;;;;8.40;99.90;;;;;;4985583;28;20408;-77
2022/04/16 07:13:12;;;;;;;;;;;8.50;99.90;;;;;;4969792;28;19936;-77
2022/04/16 07:15:38;;;;;;;;;;;8.50;99.90;;;;;;4974317;28;20333;-77
2022/04/16 07:18:04;;;;;;;;;;;8.70;99.90;;;;;;4956684;28;19922;-77
2022/04/16 07:20:30;;;;;;;;;;;8.80;99.90;;;;;;4976275;28;20468;-77
2022/04/16 07:22:55;;;;;;;;;;;9.00;99.90;;;;;;4976230;28;20032;-77
2022/04/16 07:25:21;;;;;;;;;;;9.20;99.90;;;;;;4993392;28;19921;-79
2022/04/16 07:27:47;;;;;;;;;;;9.30;99.90;;;;;;4993475;28;19933;-78
2022/04/16 07:30:13;;;;;;;;;;;9.40;99.90;;;;;;4975132;28;20025;-76
2022/04/16 07:32:39;;;;;;;;;;;9.50;99.90;;;;;;4969099;28;19929;-76
2022/04/16 07:35:08;;;;;;;;;;;9.60;99.90;;;;;;4967203;28;19930;-77
2022/04/16 07:37:33;;;;;;;;;;;9.60;99.90;;;;;;4959583;28;19934;-76
2022/04/16 07:39:59;;;;;;;;;;;9.60;99.90;;;;;;4968584;28;19921;-76
2022/04/16 07:42:25;;;;;;;;;;;9.70;99.90;;;;;;4970076;28;20284;-78
2022/04/16 07:44:50;;;;;;;;;;;9.70;99.90;;;;;;4987154;28;19933;-76
2022/04/16 07:47:15;;;;;;;;;;;9.70;99.90;;;;;;4980955;28;19965;-77
2022/04/16 07:49:41;;;;;;;;;;;9.80;99.90;;;;;;4967557;28;19922;-76
2022/04/16 07:52:06;;;;;;;;;;;9.80;99.90;;;;;;4968930;28;19923;-78
2022/04/16 07:54:32;;;;;;;;;;;9.80;99.90;;;;;;4968852;28;19932;-78
2022/04/16 07:56:57;;;;;;;;;;;9.80;99.90;;;;;;4969846;28;20027;-78
2022/04/16 07:59:23;;;;;;;;;;;9.90;99.90;;;;;;4970629;28;19930;-78
2022/04/16 08:01:48;;;;;;;;;;;10.10;99.90;;;;;;4953301;28;19922;-78
2022/04/16 08:04:14;;;;;;;;;;;10.10;99.90;;;;;;4968200;28;20019;-78
2022/04/16 08:06:39;;;;;;;;;;;10.30;99.90;;;;;;4966505;28;19930;-76
2022/04/16 08:09:05;;;;;;;;;;;10.40;99.90;;;;;;4965383;28;20484;-77
2022/04/16 08:11:31;;;;;;;;;;;10.40;99.90;;;;;;4986742;28;19996;-76
2022/04/16 08:13:56;;;;;;;;;;;10.50;99.90;;;;;;4986560;28;19930;-77
2022/04/16 08:16:22;;;;;;;;;;;10.60;99.90;;;;;;4985387;28;19922;-76
2022/04/16 08:18:47;;;;;;;;;;;10.80;99.90;;;;;;4970999;28;19930;-77
2022/04/16 08:21:13;;;;;;;;;;;10.80;99.90;;;;;;4988797;28;19929;-76
2022/04/16 08:23:44;;;;;;;;;;;10.90;99.90;;;;;;4974568;28;19922;-77
2022/04/16 08:26:10;;;;;;;;;;;11.00;99.90;;;;;;4975497;28;19991;-78
2022/04/16 08:28:36;;;;;;;;;;;11.00;99.90;;;;;;4959071;28;19930;-78
2022/04/16 08:31:01;;;;;;;;;;;11.10;99.90;;;;;;4970758;28;19929;-78
2022/04/16 08:33:27;;;;;;;;;;;11.30;99.90;;;;;;4969906;28;19921;-78
2022/04/16 08:35:52;;;;;;;;;;;11.40;99.90;;;;;;4969460;28;19925;-78
2022/04/16 08:38:18;;;;;;;;;;;11.50;99.90;;;;;;4970960;28;20296;-78
2022/04/16 08:40:43;;;;;;;;;;;11.70;99.90;;;;;;4966880;28;19925;-78
2022/04/16 08:43:09;;;;;;;;;;;11.60;99.90;;;;;;4970214;28;19924;-77
2022/04/16 08:45:36;;;;;;;;;;;11.50;99.90;;;;;;4969679;28;19965;-78
2022/04/16 08:48:01;;;;;;;;;;;11.50;99.90;;;;;;4969927;28;19972;-78
2022/04/16 08:50:28;;;;;;;;;;;11.50;99.90;;;;;;4971154;28;19933;-79
2022/04/16 08:52:54;;;;;;;;;;;11.60;99.90;;;;;;4969749;28;20045;-78
2022/04/16 08:55:19;;;;;;;;;;;11.80;97.70;;;;;;4968724;28;20251;-78
2022/04/16 08:57:45;;;;;;;;;;;11.90;93.50;;;;;;4969470;28;19922;-78
2022/04/16 09:00:13;;;;;;;;;;;12.10;88.00;;;;;;4969030;28;19945;-78
2022/04/16 09:02:48;;;;;;;;;;;12.30;99.90;;;;;;4970112;28;19921;-78
2022/04/16 09:05:14;;;;;;;;;;;12.30;93.90;;;;;;4977891;28;20284;-78
2022/04/16 09:07:50;;;;;;;;;;;12.40;84.80;;;;;;4954470;28;19932;-78
2022/04/16 09:10:16;;;;;;;;;;;12.50;71.20;;;;;;4972610;28;19980;-78
2022/04/16 09:12:42;;;;;;;;;;;12.50;79.10;;;;;;4970647;28;19926;-78
2022/04/16 09:15:08;;;;;;;;;;;12.40;90.30;;;;;;4968785;28;20002;-78
2022/04/16 09:17:34;;;;;;;;;;;12.40;69.70;;;;;;4968442;28;19922;-78
2022/04/16 09:19:59;;;;;;;;;;;12.30;61.00;;;;;;4969883;28;19945;-79
2022/04/16 09:22:35;;;;;;;;;;;12.30;61.50;;;;;;4967838;28;19930;-78
2022/04/16 09:25:02;;;;;;;;;;;12.30;63.60;;;;;;4979670;28;19969;-78
2022/04/16 09:27:28;;;;;;;;;;;12.50;61.00;;;;;;4968665;28;19956;-78
2022/04/16 09:29:54;;;;;;;;;;;12.50;58.30;;;;;;4985805;28;20053;-79
2022/04/16 09:32:23;;;;;;;;;;;12.60;55.30;;;;;;4968210;28;20124;-78
2022/04/16 09:34:49;;;;;;;;;;;12.80;55.30;;;;;;4969719;28;19937;-78
2022/04/16 09:37:14;;;;;;;;;;;12.80;56.40;;;;;;4985280;28;19926;-78
2022/04/16 09:39:40;;;;;;;;;;;12.80;56.10;;;;;;4968861;28;19933;-78
2022/04/16 09:42:05;;;;;;;;;;;12.80;56.20;;;;;;4967328;28;19928;-77
2022/04/16 09:44:31;;;;;;;;;;;12.90;56.60;;;;;;4969422;28;19922;-78
2022/04/16 09:46:57;;;;;;;;;;;12.90;58.10;;;;;;4968496;28;19925;-78
2022/04/16 09:49:22;;;;;;;;;;;12.90;55.10;;;;;;4967467;28;20381;-78
2022/04/16 09:51:49;;;;;;;;;;;13.00;59.40;;;;;;4967218;28;20292;-78
2022/04/16 09:54:15;;;;;;;;;;;13.10;62.80;;;;;;4970414;28;19929;-78
2022/04/16 09:56:41;;;;;;;;;;;13.30;57.20;;;;;;4968363;28;19922;-78
2022/04/16 09:59:08;;;;;;;;;;;13.20;60.20;;;;;;4969076;28;19929;-78
2022/04/16 10:01:34;;;;;;;;;;;13.20;59.60;;;;;;4971532;28;19972;-78
2022/04/16 10:04:00;;;;;;;;;;;13.20;57.80;;;;;;4972805;28;20361;-79
2022/04/16 10:06:30;;;;;;;;;;;13.20;58.80;;;;;;4973033;28;19921;-78
2022/04/16 10:08:56;;;;;;;;;;;13.10;52.90;;;;;;4972919;28;19980;-77
2022/04/16 10:11:42;;;;;;;;;;;13.30;54.00;;;;;;4973210;28;19922;-77
2022/04/16 10:14:15;;;;;;;;;;;13.40;51.90;;;;;;4971003;28;19933;-78
2022/04/16 10:16:47;;;;;;;;;;;13.60;51.60;;;;;;4970624;28;19922;-78
2022/04/16 10:19:16;;;;;;;;;;;13.90;51.80;;;;;;4973046;28;19926;-77
2022/04/16 10:21:42;;;;;;;;;;;13.80;54.70;;;;;;4982695;28;19929;-78
2022/04/16 10:24:07;;;;;;;;;;;13.80;52.60;;;;;;4971501;28;20304;-78
2022/04/16 10:26:43;;;;;;;;;;;13.90;53.90;;;;;;4969343;28;19925;-78
2022/04/16 10:29:09;;;;;;;;;;;13.90;53.90;;;;;;4971027;28;20289;-76
2022/04/16 10:31:36;;;;;;;;;;;14.10;50.50;;;;;;4972021;28;19921;-76
2022/04/16 10:34:02;;;;;;;;;;;14.10;51.30;;;;;;4971368;28;20048;-76
2022/04/16 10:36:32;;;;;;;;;;;14.30;46.40;;;;;;4969429;28;20008;-76
2022/04/16 10:41:19;;;;;;;0.70;0.10;;;14.40;46.40;;;;;;5109053;27;20357;-79
2022/04/16 10:43:59;;;;;;;3.72;1.17;;;14.50;52.80;;;;;;5121141;28;20040;-78
2022/04/16 10:46:46;;;;;;;3.63;1.98;;;14.50;50.50;;;;;;5102517;28;20043;-78
2022/04/16 10:49:13;;;;;;;7.97;3.30;;;14.60;49.60;;;;;;5101706;28;20052;-79
2022/04/16 10:51:39;;;;;;;2.17;0.60;;;14.70;51.30;;;;;;5101291;28;20048;-78
2022/04/16 10:54:12;;;;;;;3.88;0.77;;;14.80;50.00;;;;;;5101225;28;20059;-79
2022/04/16 10:56:40;;;;;;;2.85;0.20;;;14.80;52.10;;;;;;5085291;28;20062;-79
2022/04/16 10:59:08;;;;;;;1.05;0.20;;;14.80;50.40;;;;;;5102602;28;20032;-78
2022/04/16 11:01:34;;;;;;;0.75;0.20;;;14.90;49.10;;;;;;5103695;28;20398;-79
2022/04/16 11:04:14;;;;;;;1.77;0.20;;;15.00;48.20;;;;;;5102405;28;20044;-79
2022/04/16 11:06:54;;;;;;;2.42;0.30;;;15.20;48.40;;;;;;5101499;28;20036;-78
2022/04/16 11:09:20;;;;;;;4.53;0.30;;;15.40;48.70;;;;;;5102978;28;20495;-78
2022/04/16 11:11:52;;;;;;;1.73;0.28;;;15.50;49.10;;;;;;5102905;28;20529;-78
2022/04/16 11:14:18;;;;;;;0.40;0.10;;;15.60;48.50;;;;;;5102399;28;20081;-78
2022/04/16 11:16:46;;;;;;;6.18;1.35;;;15.60;49.00;;;;;;5119348;27;20182;-78
2022/04/16 11:19:16;;;;;;;3.90;0.50;;;15.60;46.80;;;;;;5099887;28;20081;-78
2022/04/16 11:21:42;;;;;;;4.93;0.60;;;15.80;47.40;;;;;;5103186;28;20516;-79
2022/04/16 11:24:09;;;;;;;2.47;0.20;;;15.80;47.90;;;;;;5102899;28;20095;-78
2022/04/16 11:34:52;;;;;;;1.13;0.20;;;16.20;45.70;;;;;;5100923;28;19916;-79
2022/04/16 11:37:18;;;;;;;2.47;0.20;;;16.20;48.90;;;;;;5086518;28;20048;-78
2022/04/16 11:39:46;;;;;;;5.95;0.45;;;16.50;48.90;;;;;;5086605;28;20036;-79
2022/04/16 11:42:12;;;;;;;0.60;0.17;;;16.60;47.20;;;;;;5086556;28;20059;-79
2022/04/16 11:44:42;;;;;;;0.45;0.10;;;16.50;48.00;;;;;;5086500;28;20044;-79
2022/04/16 11:47:13;;;;;;;1.23;0.20;;;16.50;46.40;;;;;;5089111;28;20032;-78
2022/04/16 11:49:42;;;;;;;6.53;2.35;;;16.50;47.50;;;;;;5087388;28;20090;-79
2022/04/16 11:52:09;;;;;;;0.98;0.15;;;16.50;45.80;;;;;;5095584;28;20047;-79
2022/04/16 11:54:35;;;;;;;1.50;0.10;;;16.80;46.00;;;;;;5092982;28;20506;-79
2022/04/16 11:57:01;;;;;;;3.58;0.20;;;16.90;44.90;;;;;;5089309;28;20047;-79
2022/04/16 11:59:28;;;;;;;1.25;0.20;;;17.00;44.40;;;;;;5085671;28;20035;-79
2022/04/16 12:02:08;;;;;;;3.38;0.25;;;17.10;43.50;;;;;;5091636;28;20548;-79
2022/04/16 12:04:42;;;;;;;0.95;0.25;;;17.40;42.10;;;;;;5092021;28;20036;-79
2022/04/16 12:07:16;;;;;;;0.60;0.10;;;17.30;45.00;;;;;;5084508;28;20040;-79
2022/04/16 12:09:48;;;;;;;0.85;0.20;;;17.30;43.20;;;;;;5092934;28;20101;-78
2022/04/16 12:12:18;;;;;;;1.13;0.20;;;17.20;44.00;;;;;;5094363;28;20039;-79
2022/04/16 12:14:45;;;;;;;1.80;0.20;;;17.10;45.50;;;;;;5076797;28;20175;-79
2022/04/16 12:17:11;;;;;;;4.47;0.20;;;17.20;43.30;;;;;;5073302;28;20051;-79
2022/04/16 12:19:36;;;;;;;0.98;0.10;;;17.20;43.20;;;;;;5074206;28;20041;-79
2022/04/16 12:22:03;;;;;;;4.82;0.50;;;17.20;43.60;;;;;;5059268;28;20067;-79
2022/04/16 12:24:29;;;;;;;0.98;0.20;;;17.50;45.00;;;;;;5075645;28;20041;-79
2022/04/16 12:26:56;;;;;;;4.13;1.45;;;17.50;43.30;;;;;;5078180;28;20485;-80
2022/04/16 12:29:30;;;;;;;1.02;0.30;;;17.70;43.20;;;;;;5086057;28;20169;-81
2022/04/16 12:31:59;;;;;;;1.90;0.17;;;17.90;43.20;;;;;;5094551;28;20485;-78
2022/04/16 12:34:26;;;;;;;3.05;0.50;;;17.90;42.40;;;;;;5087971;28;20042;-78
2022/04/16 12:36:52;;;;;;;1.42;0.25;;;18.00;40.80;;;;;;5094131;28;20505;-80
2022/04/16 12:39:18;;;;;;;1.33;0.15;;;18.00;41.20;;;;;;5093785;28;20047;-79
2022/04/16 12:41:43;;;;;;;0.47;0.15;;;18.10;41.20;;;;;;5078414;28;20044;-79
2022/04/16 12:44:09;;;;;;;0.60;0.10;;;18.10;40.90;;;;;;5091213;28;20493;-79
2022/04/16 12:46:34;;;;;;;1.33;0.22;;;18.20;40.30;;;;;;5091802;28;20043;-79
2022/04/16 12:49:00;;;;;;;1.67;0.40;;;18.10;41.60;;;;;;5093461;28;20048;-79
2022/04/16 12:51:26;;;;;;;0.85;0.20;;;18.30;41.90;;;;;;5093850;28;20036;-79
2022/04/16 12:53:52;;;;;;;4.68;0.43;;;18.40;40.80;;;;;;5093875;28;20040;-79
2022/04/16 12:56:18;;;;;;;1.83;0.50;;;18.70;40.00;;;;;;5093648;28;20082;-79
2022/04/16 12:58:43;;;;;;;2.83;0.20;;;18.80;41.40;;;;;;5092125;28;20042;-79
2022/04/16 13:01:09;;;;;;;1.10;0.40;;;18.80;40.20;;;;;;5076693;28;20069;-80
2022/04/16 13:03:34;;;;;;;1.67;0.15;;;18.50;40.20;;;;;;5091564;28;20040;-79
2022/04/16 13:06:00;;;;;;;1.25;0.20;;;18.50;40.40;;;;;;5078973;28;20139;-79
2022/04/16 13:08:29;;;;;;;2.15;0.20;;;18.70;40.30;;;;;;5088180;28;20039;-80
2022/04/16 13:10:55;;;;;;;2.22;0.35;;;18.70;40.70;;;;;;5093545;28;20490;-80
2022/04/16 13:13:20;;;;;;;3.15;1.67;;;18.60;41.20;;;;;;5090509;28;20123;-79
2022/04/16 13:15:46;;;;;;;3.80;2.25;;;18.40;40.90;;;;;;5091288;28;20043;-79
2022/04/16 13:18:12;;;;;;;3.35;0.90;;;18.60;40.40;;;;;;5089803;28;20051;-79
2022/04/16 13:20:38;;;;;;;7.22;4.38;;;18.80;40.30;;;;;;5091298;28;20453;-78
2022/04/16 13:23:03;;;;;;;2.20;0.20;;;19.00;38.70;;;;;;5091497;28;20051;-79
2022/04/16 13:25:32;;;;;;;0.65;0.10;;;19.10;39.30;;;;;;5083037;28;20024;-78
2022/04/16 13:27:58;;;;;;;0.57;0.10;;;19.20;38.30;;;;;;5091502;28;20113;-79
2022/04/16 13:30:23;;;;;;;0.93;0.20;;;19.40;37.50;;;;;;5088187;28;20451;-80
2022/04/16 13:32:49;;;;;;;0.55;0.17;;;19.40;36.70;;;;;;5089365;28;20048;-80
2022/04/16 13:35:14;;;;;;;1.33;0.10;;;19.40;38.40;;;;;;5091434;28;20051;-79
2022/04/16 13:37:41;;;;;;;1.60;0.28;;;19.50;38.40;;;;;;5091069;28;20085;-79
2022/04/16 13:42:51;;;;;;;0.90;0.20;;;19.60;39.40;;;;;;5091144;28;20056;-79
2022/04/16 13:45:17;;;;;;;0.85;0.30;;;19.70;38.60;;;;;;5092474;28;20032;-79
2022/04/16 13:47:42;;;;;;;5.72;0.32;;;19.30;38.40;;;;;;5089966;28;20032;-78
2022/04/16 13:50:09;;;;;;;1.73;0.25;;;19.40;38.40;;;;;;5070715;28;20174;-79
2022/04/16 13:52:34;;;;;;;0.40;0.10;;;19.40;39.10;;;;;;5070594;28;20044;-79
2022/04/16 13:55:00;;;;;;;2.05;0.30;;;19.40;38.60;;;;;;5070738;28;20051;-79
2022/04/16 13:57:25;;;;;;;1.45;0.40;;;19.60;38.60;;;;;;5070362;28;20387;-79
2022/04/16 13:59:51;;;;;;;1.42;0.40;;;19.80;39.00;;;;;;5070623;28;20430;-79
2022/04/16 14:02:17;;;;;;;0.30;0.10;;;19.70;39.30;;;;;;5070576;28;20044;-79
2022/04/16 14:07:27;;;;;;;3.67;0.47;;;19.60;37.80;;;;;;5070412;28;20036;-79
2022/04/16 14:09:52;;;;;;;0.28;0.10;;;19.80;37.00;;;;;;5070630;28;20376;-80
2022/04/16 14:12:18;;;;;;;1.30;0.30;;;19.80;35.80;;;;;;5053993;28;20070;-79
2022/04/16 14:14:44;;;;;;;2.58;0.20;;;19.90;35.50;;;;;;5070431;28;20101;-79
2022/04/16 14:17:09;;;;;;;9.98;0.65;;;20.10;34.80;;;;;;5070055;28;20044;-79
2022/04/16 14:19:36;;;;;;;5.32;0.47;;;20.40;36.90;;;;;;5070887;28;20037;-79
2022/04/16 14:22:06;;;;;;;0.60;0.20;;;20.70;37.90;;;;;;5071474;28;20041;-80